createdAt,value
2019-05-25T00:56:17.676Z,98987.03
2019-05-25T00:58:52.950Z,98994.37
2019-05-25T01:01:28.512Z,98991.91
2019-05-25T01:04:04.240Z,98986.28
2019-05-25T07:26:22.669Z,99892.95
2019-05-25T07:28:57.442Z,99895.47
2019-05-25T07:31:32.112Z,99901.20
2019-05-25T07:34:06.705Z,99899.08
2019-05-25T07:36:40.751Z,99905.08
2019-05-25T07:39:14.858Z,99902.70
2019-05-25T07:41:49.035Z,99901.36
2019-05-25T07:44:26.069Z,99899.95
2019-05-25T07:47:00.526Z,99898.59
2019-05-25T07:49:36.763Z,99895.19
2019-05-25T07:52:11.304Z,99889.48
2019-05-25T07:54:47.625Z,99899.09
2019-05-25T07:57:22.127Z,99898.72
2019-05-25T07:59:58.308Z,99898.83
2019-05-25T08:02:34.736Z,99904.55
2019-05-25T08:05:09.546Z,99906.90
2019-05-25T08:07:44.195Z,99904.51
2019-05-25T08:10:19.908Z,99912.53
2019-05-25T08:12:56.402Z,99907.76
2019-05-25T08:15:31.879Z,99911.61
2019-05-25T08:18:08.147Z,99909.81
2019-05-25T08:20:47.156Z,99899.89
2019-05-25T08:23:22.062Z,99900.47
2019-05-25T08:27:41.529Z,99885.28
2019-05-25T08:30:16.595Z,99881.72
2019-05-25T08:32:50.134Z,99886.31
2019-05-25T08:35:23.370Z,99890.55
2019-05-25T08:38:00.539Z,99883.86
2019-05-25T08:40:33.797Z,99888.37
2019-05-25T08:43:13.652Z,99879.50
2019-05-25T08:45:46.883Z,99888.42
2019-05-25T08:48:20.252Z,99893.27
2019-05-25T08:50:53.327Z,99902.22
2019-05-25T08:53:40.781Z,99898.48
2019-05-25T08:56:01.936Z,99885.61
2019-05-25T08:58:47.470Z,99874.02
2019-05-25T09:01:09.548Z,99870.89
2019-05-25T09:03:44.339Z,99867.33
2019-05-25T09:06:17.487Z,99863.50
2019-05-25T09:08:52.206Z,99863.66
2019-05-25T09:11:25.382Z,99859.24
2019-05-25T09:13:57.565Z,99851.43
2019-05-25T09:16:30.590Z,99866.35
2019-05-25T09:19:04.028Z,99862.56
2019-05-25T09:21:37.212Z,99856.59
2019-05-25T09:24:10.582Z,99867.61
2019-05-25T09:26:45.000Z,99853.56
2019-05-25T09:29:18.619Z,99854.81
2019-05-25T09:31:53.177Z,99858.05
2019-05-25T09:34:26.956Z,99845.78
2019-05-25T09:37:00.708Z,99841.28
2019-05-25T09:39:33.951Z,99842.45
2019-05-25T09:42:11.806Z,99832.69
2019-05-25T09:44:45.199Z,99830.69
2019-05-25T09:47:18.459Z,99834.92
2019-05-25T09:49:52.062Z,99825.42
2019-05-25T09:52:26.187Z,99822.91
2019-05-25T09:54:59.828Z,99823.73
2019-05-25T09:57:33.408Z,99820.04
2019-05-25T10:00:09.503Z,99828.34
2019-05-25T10:02:43.507Z,99827.50
2019-05-25T10:05:19.878Z,99824.36
2019-05-25T10:07:53.474Z,99822.99
2019-05-25T10:10:29.013Z,99815.23
2019-05-25T10:13:04.452Z,99815.34
2019-05-25T10:15:37.737Z,99813.75
2019-05-25T10:18:11.140Z,99813.34
2019-05-25T10:20:47.606Z,99796.55
2019-05-25T10:23:21.148Z,99807.77
2019-05-25T10:25:54.650Z,99838.66
2019-05-25T10:28:28.065Z,99868.89
2019-05-25T10:31:01.718Z,99875.92
2019-05-25T10:33:36.701Z,99888.11
2019-05-25T10:36:10.399Z,99896.81
2019-05-25T10:38:44.317Z,99893.56
2019-05-25T10:41:18.079Z,99895.25
2019-05-25T10:43:51.603Z,99911.09
2019-05-25T10:46:26.622Z,99917.48
2019-05-25T10:49:00.042Z,99908.67
2019-05-25T10:51:37.417Z,99902.38
2019-05-25T10:54:11.182Z,99901.00
2019-05-25T10:56:45.511Z,99886.92
2019-05-25T10:59:20.657Z,99880.75
2019-05-25T11:01:57.347Z,99870.87
2019-05-25T11:04:30.975Z,99853.96
2019-05-25T11:07:04.184Z,99846.09
2019-05-25T11:09:40.153Z,99840.00
2019-05-25T11:12:13.689Z,99837.57
2019-05-25T11:14:47.409Z,99844.20
2019-05-25T11:17:22.656Z,99850.91
2019-05-25T11:19:58.361Z,99860.91
2019-05-25T11:22:32.400Z,99865.41
2019-05-25T11:33:06.235Z,99853.22
2019-05-25T11:35:39.383Z,99844.59
2019-05-25T11:38:23.569Z,99848.58
2019-05-25T11:40:53.742Z,99853.02
2019-05-25T11:43:30.261Z,99859.73
2019-05-25T11:46:05.852Z,99879.27
2019-05-25T11:48:40.759Z,99885.86
2019-05-25T11:51:15.469Z,99888.81
2019-05-25T11:53:51.531Z,99885.88
2019-05-25T11:56:26.240Z,99876.33
2019-05-25T11:59:04.571Z,99884.28
2019-05-25T12:01:34.506Z,99883.03
2019-05-25T12:04:07.810Z,99877.16
2019-05-25T12:06:42.653Z,99872.67
2019-05-25T12:09:15.951Z,99874.98
2019-05-25T12:11:52.135Z,99882.62
2019-05-25T12:14:25.422Z,99880.02
2019-05-25T12:17:00.164Z,99876.74
2019-05-25T12:19:33.413Z,99863.93
2019-05-25T12:22:06.914Z,99863.33
2019-05-25T12:24:43.043Z,99865.93
2019-05-25T12:27:16.970Z,99853.25
2019-05-25T12:29:58.036Z,99850.42
2019-05-25T12:32:32.534Z,99857.01
2019-05-25T12:35:07.437Z,99858.48
2019-05-25T12:37:40.574Z,99861.02
2019-05-25T12:40:14.060Z,99859.23
2019-05-25T12:42:47.169Z,99854.38
2019-05-25T12:45:24.153Z,99852.83
2019-05-25T12:47:57.101Z,99846.33
2019-05-25T12:50:30.126Z,99835.81
2019-05-25T12:53:03.368Z,99831.00
2019-05-25T12:55:38.114Z,99823.94
2019-05-25T12:58:19.842Z,99809.34
2019-05-25T13:00:56.272Z,99803.59
2019-05-25T13:03:30.739Z,99793.09
2019-05-25T13:06:04.018Z,99787.63
2019-05-25T13:08:37.098Z,99783.33
2019-05-25T13:11:10.369Z,99789.63
2019-05-25T13:13:46.648Z,99787.09
2019-05-25T13:16:21.644Z,99788.27
2019-05-25T13:18:55.050Z,99790.66
2019-05-25T13:21:28.445Z,99785.63
2019-05-25T13:24:03.240Z,99790.04
2019-05-25T13:26:38.091Z,99786.27
2019-05-25T13:29:14.487Z,99792.03
2019-05-25T13:31:49.266Z,99786.16
2019-05-25T13:34:23.663Z,99786.67
2019-05-25T13:37:09.852Z,99780.70
2019-05-25T13:39:34.777Z,99779.45
2019-05-25T13:42:07.949Z,99778.71
2019-05-25T13:44:41.101Z,99773.25
2019-05-25T13:47:14.191Z,99770.30
2019-05-25T13:49:47.236Z,99763.27
2019-05-25T13:52:20.433Z,99763.59
2019-05-25T13:54:54.957Z,99760.00
2019-05-25T13:57:27.996Z,99759.77
2019-05-25T14:00:01.482Z,99758.71
2019-05-25T14:02:40.629Z,99759.16
2019-05-25T14:05:12.959Z,99752.86
2019-05-25T14:07:47.547Z,99748.86
2019-05-25T14:10:20.666Z,99748.02
2019-05-25T14:12:53.875Z,99744.02
2019-05-25T14:15:28.677Z,99748.84
2019-05-25T14:18:11.363Z,99753.05
2019-05-25T14:20:44.487Z,99751.59
2019-05-25T14:23:19.218Z,99740.89
2019-05-25T14:25:59.818Z,99740.23
2019-05-25T14:28:38.767Z,99737.52
2019-05-25T14:31:08.640Z,99735.22
2019-05-25T14:33:41.940Z,99732.48
2019-05-25T14:36:15.161Z,99737.20
2019-05-25T14:38:48.139Z,99737.20
2019-05-25T14:41:21.441Z,99734.80
2019-05-25T14:43:54.604Z,99737.75
2019-05-25T14:46:29.418Z,99732.28
2019-05-25T14:49:02.490Z,99741.56
2019-05-25T14:51:40.424Z,99736.48
2019-05-25T14:54:13.404Z,99739.95
2019-05-25T14:56:46.500Z,99742.87
2019-05-25T14:59:19.524Z,99741.73
2019-05-25T15:02:01.875Z,99743.72
2019-05-25T15:04:28.726Z,99743.72
